Time;durP1;ratioP1;P1;durP2;ratioP2;P2;SDS_P1;SDS_P2;PMS_P1;PMS_P2;Temp;Humidity;BMP_temperature;BMP_pressure;BME280_temperature;BME280_humidity;BME280_pressure;Samples;Min_cycle;Max_cycle;Signal;HPM_P1;HPM_P2
2022/10/19 00:01:50;;;;;;;;;;;17.90;99.90;;;;;;5076055;28;20426;-76
2022/10/19 00:04:15;;;;;;;;;;;17.90;99.90;;;;;;5076309;28;19904;-78
2022/10/19 00:06:41;;;;;;;;;;;17.90;99.90;;;;;;5074584;28;19916;-76
2022/10/19 00:09:07;;;;;;;;;;;17.90;99.90;;;;;;5075796;28;19904;-78
2022/10/19 00:11:33;;;;;;;;;;;17.90;99.90;;;;;;5075994;28;19954;-79
2022/10/19 00:13:59;;;;;;;;;;;17.90;99.90;;;;;;5075817;28;19904;-77
2022/10/19 00:16:26;;;;;;;;;;;17.90;99.90;;;;;;5076263;28;19904;-79
2022/10/19 00:18:54;;;;;;;;;;;17.90;99.90;;;;;;5075905;28;19957;-80
2022/10/19 00:21:20;;;;;;;;;;;17.90;99.90;;;;;;5076224;28;19904;-78
2022/10/19 00:23:45;;;;;;;;;;;17.90;99.90;;;;;;5075600;28;19991;-77
2022/10/19 00:26:11;;;;;;;;;;;17.90;99.90;;;;;;5075705;28;19912;-79
2022/10/19 00:28:36;;;;;;;;;;;17.90;99.90;;;;;;5075596;28;19954;-77
2022/10/19 00:31:06;;;;;;;;;;;17.90;99.90;;;;;;5074138;28;20431;-79
2022/10/19 00:33:32;;;;;;;;;;;17.80;99.90;;;;;;5086858;28;19919;-78
2022/10/19 00:35:58;;;;;;;;;;;17.90;99.90;;;;;;5095809;28;19904;-78
2022/10/19 00:38:23;;;;;;;;;;;17.90;99.90;;;;;;5095494;28;20005;-78
2022/10/19 00:40:49;;;;;;;;;;;17.90;99.90;;;;;;5096092;28;19911;-76
2022/10/19 00:43:16;;;;;;;;;;;17.80;99.90;;;;;;5095500;28;20403;-76
2022/10/19 00:45:41;;;;;;;;;;;17.80;99.90;;;;;;5095634;28;20283;-79
2022/10/19 00:48:08;;;;;;;;;;;17.80;99.90;;;;;;5095599;28;19904;-77
2022/10/19 00:50:33;;;;;;;;;;;17.80;99.90;;;;;;5095484;28;19939;-77
2022/10/19 00:52:59;;;;;;;;;;;17.80;99.90;;;;;;5095481;28;20283;-78
2022/10/19 00:55:24;;;;;;;;;;;17.80;99.90;;;;;;5095277;28;19904;-76
2022/10/19 00:57:50;;;;;;;;;;;17.80;99.90;;;;;;5095790;28;19908;-78
2022/10/19 01:00:16;;;;;;;;;;;17.80;99.90;;;;;;5095176;28;19904;-78
2022/10/19 01:02:41;;;;;;;;;;;17.80;99.90;;;;;;5095292;28;19904;-77
2022/10/19 01:05:07;;;;;;;;;;;17.80;99.90;;;;;;5095043;28;20007;-79
2022/10/19 01:07:33;;;;;;;;;;;17.80;99.90;;;;;;5079794;28;19998;-76
2022/10/19 01:09:59;;;;;;;;;;;17.70;99.90;;;;;;5099385;28;20009;-79
2022/10/19 01:12:24;;;;;;;;;;;17.70;99.90;;;;;;5099146;28;19910;-79
2022/10/19 01:15:05;;;;;;;;;;;17.70;99.90;;;;;;5094886;28;19904;-79
2022/10/19 01:17:41;;;;;;;;;;;17.70;99.90;;;;;;5095394;28;19908;-75
2022/10/19 01:20:12;;;;;;;;;;;17.70;99.90;;;;;;5094328;28;19910;-78
2022/10/19 01:22:57;;;;;;;;;;;17.70;99.90;;;;;;5076538;28;19911;-78
2022/10/19 01:25:47;;;;;;;;;;;17.70;99.90;;;;;;5094640;28;19946;-77
2022/10/19 01:28:12;;;;;;;;;;;17.70;99.90;;;;;;5094626;28;19907;-79
2022/10/19 01:31:16;;;;;;;;;;;17.70;99.90;;;;;;5094797;28;20410;-79
2022/10/19 01:33:45;;;;;;;;;;;17.70;99.90;;;;;;5012414;28;19952;-76
2022/10/19 01:36:17;;;;;;;;;;;17.70;99.90;;;;;;4996073;28;19905;-77
2022/10/19 01:39:01;;;;;;;;;;;17.70;99.90;;;;;;5045280;28;20245;-77
2022/10/19 01:41:30;;;;;;;;;;;17.70;99.90;;;;;;5074199;28;19905;-79
2022/10/19 01:43:59;;;;;;;;;;;17.70;99.90;;;;;;5074546;28;19904;-78
2022/10/19 01:46:25;;;;;;;;;;;17.70;99.90;;;;;;5074105;28;20376;-79
2022/10/19 01:48:53;;;;;;;;;;;17.70;99.90;;;;;;5074718;28;19915;-76
2022/10/19 01:51:22;;;;;;;;;;;17.70;99.90;;;;;;5074045;28;19904;-79
2022/10/19 01:53:51;;;;;;;;;;;17.70;99.90;;;;;;5073981;28;19950;-76
2022/10/19 01:56:18;;;;;;;;;;;17.70;99.90;;;;;;5073777;28;19908;-78
2022/10/19 01:58:45;;;;;;;;;;;17.70;99.90;;;;;;5074538;28;19911;-76
2022/10/19 02:01:12;;;;;;;;;;;17.70;99.90;;;;;;5073974;28;19965;-79
2022/10/19 02:03:38;;;;;;;;;;;17.70;99.90;;;;;;5074208;28;19911;-75
2022/10/19 02:06:05;;;;;;;;;;;17.70;99.90;;;;;;5073897;28;19915;-78
2022/10/19 02:08:36;;;;;;;;;;;17.70;99.90;;;;;;5074203;28;19904;-75
2022/10/19 02:11:02;;;;;;;;;;;17.70;99.90;;;;;;5072437;28;20397;-78
2022/10/19 02:13:29;;;;;;;;;;;17.70;99.90;;;;;;5073820;28;19905;-78
2022/10/19 02:15:55;;;;;;;;;;;17.70;99.90;;;;;;5072503;28;20284;-76
2022/10/19 02:18:32;;;;;;;;;;;17.70;99.90;;;;;;5074228;28;19908;-77
2022/10/19 02:20:59;;;;;;;;;;;17.70;99.90;;;;;;5072498;28;19954;-78
2022/10/19 02:23:26;;;;;;;;;;;17.60;99.90;;;;;;5074055;28;19986;-79
2022/10/19 02:25:51;;;;;;;;;;;17.70;99.90;;;;;;5073521;28;19920;-78
2022/10/19 02:28:17;;;;;;;;;;;17.70;99.90;;;;;;5073962;28;19905;-75
2022/10/19 02:30:43;;;;;;;;;;;17.60;99.90;;;;;;5072345;28;19957;-75
2022/10/19 02:33:11;;;;;;;;;;;17.60;99.90;;;;;;5084915;28;19943;-77
2022/10/19 02:35:36;;;;;;;;;;;17.60;99.90;;;;;;5097869;28;19953;-77
2022/10/19 02:38:03;;;;;;;;;;;17.60;99.90;;;;;;5097823;28;19919;-80
2022/10/19 02:40:33;;;;;;;;;;;17.60;99.90;;;;;;5079531;28;20403;-76
2022/10/19 02:43:00;;;;;;;;;;;17.60;99.90;;;;;;5098021;28;20352;-78
2022/10/19 02:45:31;;;;;;;;;;;17.60;99.90;;;;;;5097684;28;19904;-77
2022/10/19 02:48:01;;;;;;;;;;;17.60;99.90;;;;;;5097639;28;19904;-79
2022/10/19 02:50:27;;;;;;;;;;;17.60;99.90;;;;;;5097757;28;19953;-80
2022/10/19 02:52:52;;;;;;;;;;;17.60;99.90;;;;;;5097608;28;19908;-81
2022/10/19 02:55:18;;;;;;;;;;;17.50;99.90;;;;;;5079268;28;19904;-77
2022/10/19 02:57:44;;;;;;;;;;;17.60;99.90;;;;;;5097576;28;19908;-77
2022/10/19 03:00:09;;;;;;;;;;;17.50;99.90;;;;;;5097537;28;19904;-82
2022/10/19 03:02:35;;;;;;;;;;;17.50;99.90;;;;;;5097396;28;19904;-77
2022/10/19 03:05:01;;;;;;;;;;;17.50;99.90;;;;;;5097988;28;20347;-76
2022/10/19 03:07:26;;;;;;;;;;;17.50;99.90;;;;;;5097368;28;19953;-79
2022/10/19 03:09:52;;;;;;;;;;;17.50;99.90;;;;;;5097324;28;19904;-78
2022/10/19 03:12:17;;;;;;;;;;;17.50;99.90;;;;;;5097133;28;20268;-79
2022/10/19 03:14:43;;;;;;;;;;;17.50;99.90;;;;;;5097770;28;19904;-77
2022/10/19 03:17:09;;;;;;;;;;;17.40;99.90;;;;;;5097064;28;20383;-77
2022/10/19 03:19:35;;;;;;;;;;;17.40;99.90;;;;;;5078922;28;19904;-78
2022/10/19 03:22:00;;;;;;;;;;;17.40;99.90;;;;;;5097324;28;19904;-79
2022/10/19 03:24:26;;;;;;;;;;;17.50;99.90;;;;;;5079103;28;19904;-76
2022/10/19 03:26:51;;;;;;;;;;;17.50;99.90;;;;;;5097299;28;20370;-76
2022/10/19 03:29:17;;;;;;;;;;;17.50;99.90;;;;;;5096801;28;19910;-76
2022/10/19 03:31:42;;;;;;;;;;;17.50;99.90;;;;;;5096860;28;19904;-77
2022/10/19 03:34:08;;;;;;;;;;;17.50;99.90;;;;;;5074757;28;20316;-77
2022/10/19 03:36:35;;;;;;;;;;;17.50;99.90;;;;;;5076464;28;19948;-77
2022/10/19 03:39:03;;;;;;;;;;;17.40;99.90;;;;;;5075119;28;20332;-77
2022/10/19 03:41:30;;;;;;;;;;;17.40;99.90;;;;;;5077076;28;19905;-78
2022/10/19 03:43:56;;;;;;;;;;;17.40;99.90;;;;;;5075711;28;19957;-76
2022/10/19 03:46:22;;;;;;;;;;;17.40;99.90;;;;;;5075007;28;19994;-76
2022/10/19 03:48:48;;;;;;;;;;;17.40;99.90;;;;;;5076469;28;20324;-76
2022/10/19 03:51:15;;;;;;;;;;;17.40;99.90;;;;;;5075155;28;19990;-79
2022/10/19 03:53:41;;;;;;;;;;;17.40;99.90;;;;;;5076168;28;19904;-77
2022/10/19 03:56:13;;;;;;;;;;;17.30;99.90;;;;;;5076569;28;20424;-77
2022/10/19 03:58:39;;;;;;;;;;;17.30;99.90;;;;;;5076154;28;19997;-77
2022/10/19 04:01:06;;;;;;;;;;;17.30;99.90;;;;;;5076678;28;19954;-78
2022/10/19 04:03:32;;;;;;;;;;;17.30;99.90;;;;;;5076335;28;19943;-76
2022/10/19 04:06:01;;;;;;;;;;;17.30;99.90;;;;;;5075988;28;19908;-77
2022/10/19 04:08:27;;;;;;;;;;;17.30;99.90;;;;;;5075893;28;19909;-77
2022/10/19 04:10:57;;;;;;;;;;;17.30;99.90;;;;;;5076484;28;19905;-77
2022/10/19 04:13:22;;;;;;;;;;;17.30;99.90;;;;;;5076127;28;19991;-79
2022/10/19 04:15:47;;;;;;;;;;;17.30;99.90;;;;;;5076471;28;19935;-78
2022/10/19 04:18:13;;;;;;;;;;;17.30;99.90;;;;;;5074497;28;19905;-78
2022/10/19 04:20:41;;;;;;;;;;;17.20;99.90;;;;;;5074408;28;20061;-78
2022/10/19 04:23:07;;;;;;;;;;;17.30;99.90;;;;;;5075730;28;20356;-80
2022/10/19 04:25:32;;;;;;;;;;;17.30;99.90;;;;;;5075858;28;19915;-76
2022/10/19 04:27:58;;;;;;;;;;;17.30;99.90;;;;;;5075459;28;19911;-78
2022/10/19 04:30:23;;;;;;;;;;;17.30;99.90;;;;;;5075801;28;19905;-78
2022/10/19 04:32:49;;;;;;;;;;;17.30;99.90;;;;;;5073941;28;19956;-79
2022/10/19 04:35:14;;;;;;;;;;;17.30;99.90;;;;;;5075685;28;19904;-78
2022/10/19 04:37:39;;;;;;;;;;;17.30;99.90;;;;;;5075330;28;19904;-78
2022/10/19 04:40:05;;;;;;;;;;;17.30;99.90;;;;;;5075651;28;19966;-78
2022/10/19 04:42:31;;;;;;;;;;;17.30;99.90;;;;;;5075387;28;19908;-79
2022/10/19 04:44:56;;;;;;;;;;;17.30;99.90;;;;;;5075850;28;19904;-78
2022/10/19 04:47:22;;;;;;;;;;;17.30;99.90;;;;;;5075211;28;19930;-79
2022/10/19 04:49:47;;;;;;;;;;;17.30;99.90;;;;;;5075043;28;20417;-77
2022/10/19 04:52:13;;;;;;;;;;;17.20;99.90;;;;;;5075143;28;19904;-79
2022/10/19 04:54:38;;;;;;;;;;;17.20;99.90;;;;;;5073082;28;19912;-78
2022/10/19 04:57:04;;;;;;;;;;;17.20;99.90;;;;;;5074950;28;19927;-77
2022/10/19 04:59:29;;;;;;;;;;;17.20;99.90;;;;;;5074923;28;19995;-78
2022/10/19 05:01:55;;;;;;;;;;;17.20;99.90;;;;;;5075435;28;19994;-76
2022/10/19 05:04:20;;;;;;;;;;;17.10;99.90;;;;;;5074789;28;19920;-79
2022/10/19 05:06:46;;;;;;;;;;;17.20;99.90;;;;;;5074755;28;19909;-77
2022/10/19 05:09:11;;;;;;;;;;;17.20;99.90;;;;;;5074721;28;19915;-79
2022/10/19 05:11:37;;;;;;;;;;;17.20;99.90;;;;;;5075261;28;19911;-81
2022/10/19 05:14:02;;;;;;;;;;;17.20;99.90;;;;;;5074911;28;19911;-81
2022/10/19 05:16:28;;;;;;;;;;;17.20;99.90;;;;;;5074497;28;19904;-76
2022/10/19 05:18:58;;;;;;;;;;;17.20;99.90;;;;;;5074903;28;19905;-80
2022/10/19 05:21:25;;;;;;;;;;;17.20;99.90;;;;;;5074570;28;19951;-77
2022/10/19 05:23:52;;;;;;;;;;;17.20;99.90;;;;;;5074483;28;20387;-77
2022/10/19 05:26:18;;;;;;;;;;;17.20;99.90;;;;;;5074360;28;20360;-78
2022/10/19 05:28:47;;;;;;;;;;;17.20;99.90;;;;;;5074239;28;19905;-79
2022/10/19 05:31:14;;;;;;;;;;;17.10;99.90;;;;;;5074518;28;19953;-79
2022/10/19 05:33:41;;;;;;;;;;;17.10;99.90;;;;;;5085663;28;19916;-79
2022/10/19 05:36:14;;;;;;;;;;;17.10;99.90;;;;;;5094758;28;20442;-78
2022/10/19 05:38:40;;;;;;;;;;;17.10;99.90;;;;;;5094444;28;19911;-78
2022/10/19 05:41:05;;;;;;;;;;;17.20;99.90;;;;;;5094775;28;19904;-79
2022/10/19 05:43:31;;;;;;;;;;;17.10;99.90;;;;;;5094408;28;20360;-78
2022/10/19 05:45:56;;;;;;;;;;;17.10;99.90;;;;;;5094288;28;19907;-77
2022/10/19 05:48:22;;;;;;;;;;;17.10;99.90;;;;;;5094595;28;20316;-77
2022/10/19 05:50:54;;;;;;;;;;;17.10;99.90;;;;;;5094594;28;19904;-75
2022/10/19 05:53:20;;;;;;;;;;;17.10;99.90;;;;;;5094321;28;19904;-76
2022/10/19 05:55:45;;;;;;;;;;;17.10;99.90;;;;;;5094169;28;20371;-76
2022/10/19 05:58:11;;;;;;;;;;;17.00;99.90;;;;;;5094723;28;19954;-76
2022/10/19 06:00:36;;;;;;;;;;;17.00;99.90;;;;;;5094441;28;19911;-75
2022/10/19 06:03:02;;;;;;;;;;;17.00;99.90;;;;;;5094506;28;19904;-76
2022/10/19 06:05:28;;;;;;;;;;;17.00;99.90;;;;;;5094135;28;19904;-77
2022/10/19 06:07:53;;;;;;;;;;;17.00;99.90;;;;;;5093949;28;19911;-78
2022/10/19 06:10:20;;;;;;;;;;;16.90;99.90;;;;;;5094028;28;20368;-76
2022/10/19 06:12:45;;;;;;;;;;;16.90;99.90;;;;;;5094616;28;20352;-78
2022/10/19 06:15:11;;;;;;;;;;;16.90;99.90;;;;;;5094151;28;19932;-79
2022/10/19 06:17:36;;;;;;;;;;;16.90;99.90;;;;;;5094418;28;20002;-77
2022/10/19 06:20:02;;;;;;;;;;;16.90;99.90;;;;;;5096027;28;19904;-79
2022/10/19 06:22:28;;;;;;;;;;;16.90;99.90;;;;;;5095660;28;19904;-76
2022/10/19 06:24:54;;;;;;;;;;;16.90;99.90;;;;;;5094813;28;19904;-77
2022/10/19 06:27:20;;;;;;;;;;;16.90;99.90;;;;;;5094220;28;19908;-79
2022/10/19 06:29:45;;;;;;;;;;;16.90;99.90;;;;;;5093785;28;19962;-79
2022/10/19 06:32:11;;;;;;;;;;;16.90;99.90;;;;;;5094075;28;19908;-78
2022/10/19 06:34:36;;;;;;;;;;;16.90;99.90;;;;;;5093090;28;20268;-78
2022/10/19 06:37:02;;;;;;;;;;;16.80;99.90;;;;;;5094514;28;19904;-77
2022/10/19 06:39:27;;;;;;;;;;;16.80;99.90;;;;;;5075649;28;19912;-77
2022/10/19 06:41:53;;;;;;;;;;;16.90;99.90;;;;;;5075669;28;19904;-78
2022/10/19 06:44:18;;;;;;;;;;;16.80;99.90;;;;;;5094009;28;20272;-79
2022/10/19 06:46:44;;;;;;;;;;;16.80;99.90;;;;;;5093725;28;19907;-79
2022/10/19 06:49:11;;;;;;;;;;;16.70;99.90;;;;;;5093679;28;20272;-77
2022/10/19 06:51:36;;;;;;;;;;;16.70;99.90;;;;;;5094289;28;19957;-78
2022/10/19 06:54:02;;;;;;;;;;;16.70;99.90;;;;;;5093621;28;20305;-78
2022/10/19 06:56:27;;;;;;;;;;;16.80;99.90;;;;;;5093830;28;19911;-77
2022/10/19 06:58:53;;;;;;;;;;;16.80;99.90;;;;;;5094240;28;19904;-76
2022/10/19 07:01:18;;;;;;;;;;;16.80;99.90;;;;;;5093622;28;19904;-78
2022/10/19 07:03:44;;;;;;;;;;;16.70;99.90;;;;;;5075503;28;19905;-77
2022/10/19 07:06:10;;;;;;;;;;;16.70;99.90;;;;;;5094032;28;19908;-78
2022/10/19 07:08:37;;;;;;;;;;;16.80;99.90;;;;;;5093390;28;19904;-75
2022/10/19 07:11:05;;;;;;;;;;;16.80;99.90;;;;;;5075316;28;19904;-75
2022/10/19 07:13:30;;;;;;;;;;;16.70;99.90;;;;;;5093876;28;19912;-77
2022/10/19 07:16:02;;;;;;;;;;;16.80;99.90;;;;;;5093649;28;19904;-77
2022/10/19 07:18:28;;;;;;;;;;;16.80;99.90;;;;;;5075848;28;19904;-76
2022/10/19 07:20:57;;;;;;;;;;;16.70;99.90;;;;;;5097387;28;19911;-77
2022/10/19 07:23:23;;;;;;;;;;;16.80;99.90;;;;;;5097285;28;20320;-75
2022/10/19 07:25:51;;;;;;;;;;;16.80;99.90;;;;;;5096903;28;20326;-76
2022/10/19 07:28:16;;;;;;;;;;;16.70;99.90;;;;;;5097010;28;19962;-76
2022/10/19 07:30:42;;;;;;;;;;;16.70;99.90;;;;;;5097515;28;20348;-77
2022/10/19 07:33:07;;;;;;;;;;;16.70;99.90;;;;;;5095950;28;19923;-76
2022/10/19 07:35:33;;;;;;;;;;;16.70;99.90;;;;;;5097161;28;19904;-77
2022/10/19 07:37:58;;;;;;;;;;;16.70;99.90;;;;;;5096813;28;19953;-76
2022/10/19 07:40:24;;;;;;;;;;;16.80;99.90;;;;;;5097033;28;19904;-77
2022/10/19 07:42:49;;;;;;;;;;;16.70;99.90;;;;;;5096752;28;19908;-76
2022/10/19 07:45:16;;;;;;;;;;;16.80;99.90;;;;;;5078578;28;19904;-76
2022/10/19 07:47:41;;;;;;;;;;;16.80;99.90;;;;;;5096976;28;19912;-77
2022/10/19 07:50:07;;;;;;;;;;;16.80;99.90;;;;;;5096554;28;19913;-77
2022/10/19 07:52:33;;;;;;;;;;;16.90;99.90;;;;;;5096923;28;19904;-75
2022/10/19 07:54:59;;;;;;;;;;;16.90;99.90;;;;;;5096558;28;19905;-77
2022/10/19 07:57:25;;;;;;;;;;;17.00;99.90;;;;;;5096386;28;19904;-76
2022/10/19 07:59:50;;;;;;;;;;;17.10;99.90;;;;;;5096615;28;19962;-77
2022/10/19 08:02:17;;;;;;;;;;;17.00;99.90;;;;;;5096377;28;19904;-79
2022/10/19 08:04:42;;;;;;;;;;;17.00;99.90;;;;;;5096575;28;19911;-76
2022/10/19 08:07:08;;;;;;;;;;;17.10;99.90;;;;;;5096310;28;19908;-76
2022/10/19 08:09:34;;;;;;;;;;;17.20;99.90;;;;;;5096200;28;19911;-77
2022/10/19 08:11:59;;;;;;;;;;;17.30;99.90;;;;;;5096374;28;19911;-77
2022/10/19 08:14:25;;;;;;;;;;;17.30;99.90;;;;;;5095962;28;19952;-76
2022/10/19 08:16:51;;;;;;;;;;;17.40;99.90;;;;;;5096402;28;19904;-77
2022/10/19 08:19:16;;;;;;;;;;;17.50;99.90;;;;;;5095970;28;20359;-77
2022/10/19 08:21:43;;;;;;;;;;;17.60;99.90;;;;;;5096113;28;19904;-77
2022/10/19 08:24:09;;;;;;;;;;;17.80;99.90;;;;;;5095916;28;19905;-77
2022/10/19 08:26:37;;;;;;;;;;;18.20;99.90;;;;;;5096110;28;19930;-77
2022/10/19 08:29:03;;;;;;;;;;;18.70;99.90;;;;;;5095478;28;19911;-79
2022/10/19 08:31:29;;;;;;;;;;;19.00;99.90;;;;;;5095945;28;19943;-78
2022/10/19 08:33:55;;;;;;;;;;;19.20;99.90;;;;;;5095325;28;19939;-77
2022/10/19 08:36:20;;;;;;;;;;;19.50;99.90;;;;;;5095964;28;19910;-76
2022/10/19 08:38:47;;;;;;;;;;;19.60;99.90;;;;;;5077571;28;19939;-77
2022/10/19 08:41:22;;;;;;;;;;;19.70;99.90;;;;;;5077261;28;19908;-76
2022/10/19 08:44:06;;;;;;;;;;;19.90;99.90;;;;;;5095468;28;19911;-77
2022/10/19 08:46:49;;;;;;;;;;;20.10;99.90;;;;;;5095306;28;19959;-75
2022/10/19 08:49:18;;;;;;;;;;;20.20;99.90;;;;;;5096020;28;19943;-77
2022/10/19 08:51:45;;;;;;;;;;;20.10;99.90;;;;;;5095378;28;20248;-76
2022/10/19 08:54:16;;;;;;;;;;;20.20;99.90;;;;;;5095597;28;19908;-77
2022/10/19 08:57:03;;;;;;;;;;;20.30;99.90;;;;;;5095188;28;19987;-79
2022/10/19 09:00:03;;;;;;;;;;;20.40;99.90;;;;;;5095661;28;19911;-78
2022/10/19 09:02:29;;;;;;;;;;;20.60;99.90;;;;;;5013191;28;19955;-78
2022/10/19 09:05:02;;;;;;;;;;;20.70;99.90;;;;;;5077985;28;19908;-78
2022/10/19 09:07:36;;;;;;;;;;;20.70;99.90;;;;;;5094929;28;19915;-77
2022/10/19 09:10:23;;;;;;;;;;;20.70;99.90;;;;;;5095197;28;19908;-76
2022/10/19 09:13:13;;;;;;;;;;;20.80;99.90;;;;;;5094918;28;19953;-76
2022/10/19 09:15:49;;;;;;;;;;;20.80;99.90;;;;;;5095701;28;19954;-75
2022/10/19 09:18:19;;;;;;;;;;;20.80;99.90;;;;;;5094996;28;20356;-75
2022/10/19 09:20:47;;;;;;;;;;;20.60;99.90;;;;;;5095052;28;19995;-75
2022/10/19 09:23:18;;;;;;;;;;;20.60;99.90;;;;;;5094936;28;20360;-75
2022/10/19 09:25:46;;;;;;;;;;;20.80;99.90;;;;;;5094710;28;20007;-77
2022/10/19 09:28:15;;;;;;;;;;;20.60;99.90;;;;;;5095337;28;19915;-77
2022/10/19 09:30:41;;;;;;;;;;;20.60;99.90;;;;;;5094612;28;19904;-75
2022/10/19 09:33:11;;;;;;;;;;;20.70;99.90;;;;;;5094546;28;19923;-75
2022/10/19 09:35:40;;;;;;;;;;;20.90;99.90;;;;;;5094882;28;19911;-75
2022/10/19 09:38:06;;;;;;;;;;;21.10;99.90;;;;;;5094728;28;19939;-76
2022/10/19 09:40:33;;;;;;;;;;;21.20;99.90;;;;;;5094250;28;20376;-76
2022/10/19 09:43:07;;;;;;;;;;;21.30;99.90;;;;;;5094304;28;19991;-76
2022/10/19 09:45:51;;;;;;;;;;;21.40;99.90;;;;;;5094753;28;19990;-76
2022/10/19 09:48:19;;;;;;;;;;;21.60;99.90;;;;;;5094737;28;19904;-76
2022/10/19 09:50:50;;;;;;;;;;;21.70;99.90;;;;;;5094713;28;20019;-74
2022/10/19 09:53:20;;;;;;;;;;;21.80;99.90;;;;;;5094711;28;19911;-76
2022/10/19 09:55:57;;;;;;;;;;;21.90;99.90;;;;;;5094911;28;19927;-75
2022/10/19 09:58:26;;;;;;;;;;;21.90;99.90;;;;;;5094300;28;19904;-74
2022/10/19 10:00:53;;;;;;;;;;;22.00;99.90;;;;;;5076129;28;19908;-75
2022/10/19 10:03:27;;;;;;;;;;;21.90;99.90;;;;;;5094174;28;19905;-76
2022/10/19 10:05:54;;;;;;;;;;;21.80;99.90;;;;;;5094432;28;19915;-76
2022/10/19 10:08:21;;;;;;;;;;;21.90;99.90;;;;;;5094214;28;19912;-76
2022/10/19 10:10:52;;;;;;;;;;;21.90;99.90;;;;;;5094616;28;19904;-75
2022/10/19 10:13:20;;;;;;;;;;;21.90;99.90;;;;;;5094258;28;19904;-75
2022/10/19 10:15:50;;;;;;;;;;;21.90;99.90;;;;;;5094743;28;19904;-75
2022/10/19 10:18:17;;;;;;;;;;;22.00;99.90;;;;;;5075956;28;19904;-76
2022/10/19 10:20:58;;;;;;;;;;;22.10;99.90;;;;;;5094380;28;19926;-75
2022/10/19 10:23:25;;;;;;;;;;;22.10;99.90;;;;;;5094244;28;19904;-75
2022/10/19 10:25:53;;;;;;;;;;;22.10;99.90;;;;;;5093945;28;19904;-76
2022/10/19 10:28:20;;;;;;;;;;;22.00;99.90;;;;;;5094129;28;20375;-75
2022/10/19 10:30:47;;;;;;;;;;;22.00;99.90;;;;;;5094467;28;19904;-76
2022/10/19 10:33:18;;;;;;;;;;;21.90;99.90;;;;;;5093779;28;19920;-75
2022/10/19 10:35:52;;;;;;;;;;;22.00;99.90;;;;;;5093935;28;20265;-75
2022/10/19 10:38:29;;;;;;;;;;;22.10;99.90;;;;;;5094128;28;19905;-75
2022/10/19 10:40:56;;;;;;;;;;;22.10;99.90;;;;;;5094520;28;20338;-75
2022/10/19 10:43:25;;;;;;;;;;;22.30;99.90;;;;;;5093946;28;19961;-77
2022/10/19 10:45:52;;;;;;;;;;;22.20;99.90;;;;;;5094216;28;19905;-76
2022/10/19 10:48:29;;;;;;;;;;;22.20;99.90;;;;;;5094005;28;19904;-75
2022/10/19 10:50:56;;;;;;;;;;;22.10;99.90;;;;;;5094209;28;19904;-76
2022/10/19 10:53:33;;;;;;;;;;;22.20;99.90;;;;;;5096550;28;19911;-75
2022/10/19 10:55:59;;;;;;;;;;;22.10;99.90;;;;;;5097600;28;19904;-76
2022/10/19 10:58:46;;;;;;;;;;;22.20;99.90;;;;;;5097707;28;20379;-75
2022/10/19 11:01:18;;;;;;;;;;;22.20;99.90;;;;;;5079307;28;20313;-76
2022/10/19 11:04:03;;;;;;;;;;;22.20;99.90;;;;;;5097554;28;20379;-75
2022/10/19 11:06:28;;;;;;;;;;;22.10;99.90;;;;;;5097494;28;19908;-76
2022/10/19 11:08:55;;;;;;;;;;;22.20;99.90;;;;;;5079178;28;19911;-75
2022/10/19 11:11:31;;;;;;;;;;;22.20;99.90;;;;;;5097889;28;19956;-75
2022/10/19 11:13:57;;;;;;;;;;;22.10;99.90;;;;;;5097442;28;19904;-76
2022/10/19 11:16:26;;;;;;;;;;;22.00;99.90;;;;;;5079228;28;19911;-75
2022/10/19 11:19:00;;;;;;;;;;;21.90;99.90;;;;;;5097174;28;20470;-75
2022/10/19 11:21:29;;;;;;;;;;;21.90;99.90;;;;;;5097420;28;19904;-75
2022/10/19 11:24:03;;;;;;;;;;;21.80;99.90;;;;;;5097111;28;19904;-76
2022/10/19 11:26:47;;;;;;;;;;;22.00;99.90;;;;;;5097270;28;20273;-76
2022/10/19 11:29:22;;;;;;;;;;;21.90;99.90;;;;;;5096992;28;19911;-76
2022/10/19 11:31:49;;;;;;;;;;;22.00;99.90;;;;;;5097244;28;20356;-76
2022/10/19 11:34:18;;;;;;;;;;;22.00;99.90;;;;;;5096735;28;19922;-76
2022/10/19 11:36:58;;;;;;;;;;;21.90;99.90;;;;;;5097046;28;19904;-76
2022/10/19 11:39:29;;;;;;;;;;;21.80;99.90;;;;;;5096739;28;20337;-76
2022/10/19 11:42:17;;;;;;;;;;;21.80;99.90;;;;;;5097373;28;19927;-76
2022/10/19 11:44:43;;;;;;;;;;;21.90;99.90;;;;;;5097037;28;19933;-76
2022/10/19 11:47:17;;;;;;;;;;;22.00;99.90;;;;;;5096846;28;19908;-75
2022/10/19 11:49:51;;;;;;;;;;;22.10;99.90;;;;;;5096900;28;19904;-75
2022/10/19 11:52:26;;;;;;;;;;;22.20;99.90;;;;;;5096529;28;19908;-75
2022/10/19 11:54:59;;;;;;;;;;;22.20;99.90;;;;;;5096560;28;20376;-76
2022/10/19 11:57:27;;;;;;;;;;;22.20;99.90;;;;;;5097175;28;19961;-75
2022/10/19 12:00:01;;;;;;;;;;;22.20;99.90;;;;;;5096017;28;20275;-76
2022/10/19 12:02:41;;;;;;;;;;;22.20;99.90;;;;;;5096639;28;20360;-76
2022/10/19 12:05:18;;;;;;;;;;;22.20;99.90;;;;;;5095924;28;19969;-76
2022/10/19 12:07:44;;;;;;;;;;;22.20;99.90;;;;;;5096243;28;19908;-75
2022/10/19 12:10:39;;;;;;;;;;;22.30;99.90;;;;;;5096367;28;19991;-75
2022/10/19 12:13:07;;;;;;;;;;;22.40;99.90;;;;;;5078260;28;19911;-75
2022/10/19 12:15:39;;;;;;;;;;;22.30;99.90;;;;;;5096638;28;19904;-75
2022/10/19 12:18:15;;;;;;;;;;;22.30;99.90;;;;;;5078255;28;19904;-76
2022/10/19 12:20:45;;;;;;;;;;;22.30;99.90;;;;;;5096742;28;19904;-75
2022/10/19 12:23:27;;;;;;;;;;;22.30;99.90;;;;;;5095903;28;19904;-75
2022/10/19 12:25:54;;;;;;;;;;;22.40;99.90;;;;;;5095825;28;19907;-76
2022/10/19 12:28:21;;;;;;;;;;;22.50;99.90;;;;;;5095926;28;19911;-75
2022/10/19 12:30:47;;;;;;;;;;;22.70;99.90;;;;;;5095866;28;19904;-75
2022/10/19 12:33:45;;;;;;;;;;;22.80;99.90;;;;;;5095438;28;19943;-76
2022/10/19 12:36:14;;;;;;;;;;;22.80;99.90;;;;;;5079966;28;19908;-76
2022/10/19 12:38:45;;;;;;;;;;;22.80;99.90;;;;;;5095832;28;19950;-75
2022/10/19 12:41:25;;;;;;;;;;;22.80;99.90;;;;;;5077202;28;20260;-75
2022/10/19 12:44:03;;;;;;;;;;;22.80;99.90;;;;;;5096015;28;19953;-76
2022/10/19 12:46:28;;;;;;;;;;;22.90;99.90;;;;;;5095464;28;20264;-76
2022/10/19 12:49:12;;;;;;;;;;;23.00;99.90;;;;;;5095390;28;19910;-75
2022/10/19 12:51:45;;;;;;;;;;;23.00;99.90;;;;;;5095856;28;19927;-75
2022/10/19 12:54:11;;;;;;;;;;;23.20;99.90;;;;;;5095346;28;19972;-75
2022/10/19 12:56:47;;;;;;;;;;;23.30;99.90;;;;;;5095567;28;19911;-76
2022/10/19 12:59:26;;;;;;;;;;;23.30;99.90;;;;;;5077101;28;20288;-76
2022/10/19 13:01:52;;;;;;;;;;;23.30;99.90;;;;;;5076963;28;20361;-76
2022/10/19 13:04:25;;;;;;;;;;;23.30;99.90;;;;;;5095433;28;19911;-75
2022/10/19 13:06:57;;;;;;;;;;;23.20;99.90;;;;;;5094991;28;19908;-75
2022/10/19 13:09:28;;;;;;;;;;;23.10;99.90;;;;;;5095233;28;19915;-76
2022/10/19 13:12:12;;;;;;;;;;;23.20;99.90;;;;;;5076843;28;19990;-76
2022/10/19 13:14:56;;;;;;;;;;;23.10;99.90;;;;;;5095003;28;19994;-76
2022/10/19 13:17:35;;;;;;;;;;;23.10;99.90;;;;;;5093938;28;19904;-75
2022/10/19 13:20:12;;;;;;;;;;;23.10;99.90;;;;;;5095452;28;19904;-75
2022/10/19 13:22:38;;;;;;;;;;;23.10;99.90;;;;;;5094880;28;19908;-75
2022/10/19 13:25:13;;;;;;;;;;;23.10;99.90;;;;;;5095270;28;20344;-75
2022/10/19 13:27:38;;;;;;;;;;;23.10;99.90;;;;;;5094637;28;20462;-76
2022/10/19 13:30:04;;;;;;;;;;;23.10;99.90;;;;;;5094675;28;19912;-75
2022/10/19 13:32:43;;;;;;;;;;;23.10;99.90;;;;;;5076335;28;19911;-75
2022/10/19 13:35:21;;;;;;;;;;;23.10;99.90;;;;;;5074720;28;19923;-75
2022/10/19 13:38:06;;;;;;;;;;;23.20;99.90;;;;;;5073101;28;19905;-75
2022/10/19 13:40:32;;;;;;;;;;;23.20;99.90;;;;;;5074747;28;19923;-76
2022/10/19 13:42:57;;;;;;;;;;;23.20;99.90;;;;;;5073195;28;20382;-75
2022/10/19 13:45:23;;;;;;;;;;;23.30;99.90;;;;;;5074768;28;20003;-76
2022/10/19 13:47:53;;;;;;;;;;;23.30;99.90;;;;;;5074536;28;19908;-76
2022/10/19 13:50:25;;;;;;;;;;;23.30;99.90;;;;;;5074617;28;19911;-76
2022/10/19 13:53:02;;;;;;;;;;;23.30;99.90;;;;;;5074644;28;20275;-75
2022/10/19 13:55:46;;;;;;;;;;;23.40;99.90;;;;;;5074444;28;19954;-76
2022/10/19 13:58:15;;;;;;;;;;;23.40;99.90;;;;;;5074251;28;20007;-75
2022/10/19 14:00:49;;;;;;;;;;;23.40;99.90;;;;;;5072982;28;19905;-76
2022/10/19 14:03:22;;;;;;;;;;;23.40;99.90;;;;;;5074727;28;19904;-75
2022/10/19 14:05:48;;;;;;;;;;;23.30;99.90;;;;;;5074240;28;19909;-75
2022/10/19 14:08:19;;;;;;;;;;;23.30;99.90;;;;;;5074149;28;20257;-75
2022/10/19 14:10:48;;;;;;;;;;;23.40;99.90;;;;;;5074588;28;19905;-74
2022/10/19 14:13:14;;;;;;;;;;;23.50;99.90;;;;;;5074176;28;19905;-76
2022/10/19 14:15:48;;;;;;;;;;;23.60;99.90;;;;;;5072802;28;19999;-75
2022/10/19 14:18:40;;;;;;;;;;;23.70;99.90;;;;;;5072368;28;19946;-76
2022/10/19 14:21:07;;;;;;;;;;;23.70;99.90;;;;;;5070608;28;19905;-76
2022/10/19 14:23:34;;;;;;;;;;;23.80;99.90;;;;;;5074169;28;19912;-75
2022/10/19 14:26:02;;;;;;;;;;;23.70;99.90;;;;;;5073670;28;19904;-76
2022/10/19 14:28:28;;;;;;;;;;;23.70;99.90;;;;;;5077029;28;19909;-75